sensor_id;sensor_type;location;lat;lon;timestamp;temperature;humidity
38582;DHT22;24349;53.720;10.014;2023-02-26T00:00:09;-0.30;47.00
38582;DHT22;24349;53.720;10.014;2023-02-26T00:02:38;-0.30;52.70
38582;DHT22;24349;53.720;10.014;2023-02-26T00:05:05;-0.40;53.60
38582;DHT22;24349;53.720;10.014;2023-02-26T00:07:30;-0.30;62.10
38582;DHT22;24349;53.720;10.014;2023-02-26T00:09:56;-0.30;58.20
38582;DHT22;24349;53.720;10.014;2023-02-26T00:12:22;-0.30;59.00
38582;DHT22;24349;53.720;10.014;2023-02-26T00:14:48;-0.30;59.30
38582;DHT22;24349;53.720;10.014;2023-02-26T00:20:01;-0.30;51.10
38582;DHT22;24349;53.720;10.014;2023-02-26T00:22:28;-0.40;43.70
38582;DHT22;24349;53.720;10.014;2023-02-26T00:24:54;-0.40;47.70
38582;DHT22;24349;53.720;10.014;2023-02-26T00:27:20;-0.30;48.00
38582;DHT22;24349;53.720;10.014;2023-02-26T00:29:45;-0.30;42.80
38582;DHT22;24349;53.720;10.014;2023-02-26T00:32:12;-0.30;39.80
38582;DHT22;24349;53.720;10.014;2023-02-26T00:34:38;-0.30;29.00
38582;DHT22;24349;53.720;10.014;2023-02-26T00:42:53;-0.40;16.20
38582;DHT22;24349;53.720;10.014;2023-02-26T00:45:19;-0.40;11.80
38582;DHT22;24349;53.720;10.014;2023-02-26T00:48:15;-0.40;8.80
38582;DHT22;24349;53.720;10.014;2023-02-26T00:51:30;-0.30;3.80
38582;DHT22;24349;53.720;10.014;2023-02-26T00:53:47;-0.20;6.00
38582;DHT22;24349;53.720;10.014;2023-02-26T00:56:14;-0.10;1.00
38582;DHT22;24349;53.720;10.014;2023-02-26T00:58:40;0.00;1.00
38582;DHT22;24349;53.720;10.014;2023-02-26T01:01:05;0.10;1.00
38582;DHT22;24349;53.720;10.014;2023-02-26T01:03:32;0.10;1.00
38582;DHT22;24349;53.720;10.014;2023-02-26T01:05:57;0.20;1.00
38582;DHT22;24349;53.720;10.014;2023-02-26T01:11:24;0.20;1.00
38582;DHT22;24349;53.720;10.014;2023-02-26T01:13:53;0.00;1.00
38582;DHT22;24349;53.720;10.014;2023-02-26T01:16:25;0.10;1.00
38582;DHT22;24349;53.720;10.014;2023-02-26T01:18:55;0.10;1.00
38582;DHT22;24349;53.720;10.014;2023-02-26T01:21:39;0.10;1.00
38582;DHT22;24349;53.720;10.014;2023-02-26T01:24:11;0.20;1.00
38582;DHT22;24349;53.720;10.014;2023-02-26T01:26:38;0.30;1.00
38582;DHT22;24349;53.720;10.014;2023-02-26T01:29:04;0.30;1.00
38582;DHT22;24349;53.720;10.014;2023-02-26T01:32:01;0.30;99.90
38582;DHT22;24349;53.720;10.014;2023-02-26T01:34:38;0.20;99.90
38582;DHT22;24349;53.720;10.014;2023-02-26T01:37:40;0.10;99.90
38582;DHT22;24349;53.720;10.014;2023-02-26T01:40:56;0.10;99.90
38582;DHT22;24349;53.720;10.014;2023-02-26T01:43:23;0.10;99.90
38582;DHT22;24349;53.720;10.014;2023-02-26T01:48:51;0.00;99.90
38582;DHT22;24349;53.720;10.014;2023-02-26T01:54:01;-0.10;99.90
38582;DHT22;24349;53.720;10.014;2023-02-26T01:56:27;-0.10;99.90
38582;DHT22;24349;53.720;10.014;2023-02-26T01:58:53;-0.20;99.90
38582;DHT22;24349;53.720;10.014;2023-02-26T02:01:19;-0.20;99.90
38582;DHT22;24349;53.720;10.014;2023-02-26T02:03:45;-0.20;1.00
38582;DHT22;24349;53.720;10.014;2023-02-26T02:06:18;-0.10;99.90
38582;DHT22;24349;53.720;10.014;2023-02-26T02:08:45;-0.20;99.90
38582;DHT22;24349;53.720;10.014;2023-02-26T02:11:11;-0.20;99.90
38582;DHT22;24349;53.720;10.014;2023-02-26T02:16:26;-0.30;99.90
38582;DHT22;24349;53.720;10.014;2023-02-26T02:32:20;-0.40;99.90
38582;DHT22;24349;53.720;10.014;2023-02-26T02:35:14;-0.40;99.90
38582;DHT22;24349;53.720;10.014;2023-02-26T02:40:34;-0.50;99.90
38582;DHT22;24349;53.720;10.014;2023-02-26T02:45:41;-0.60;99.90
38582;DHT22;24349;53.720;10.014;2023-02-26T02:48:25;-0.70;99.90
38582;DHT22;24349;53.720;10.014;2023-02-26T02:51:28;-0.70;1.00
38582;DHT22;24349;53.720;10.014;2023-02-26T02:54:03;-0.70;1.00
38582;DHT22;24349;53.720;10.014;2023-02-26T02:56:53;-0.70;1.00
38582;DHT22;24349;53.720;10.014;2023-02-26T02:59:22;-0.70;99.90
38582;DHT22;24349;53.720;10.014;2023-02-26T03:02:03;-0.80;99.90
38582;DHT22;24349;53.720;10.014;2023-02-26T03:04:29;-0.80;99.90
38582;DHT22;24349;53.720;10.014;2023-02-26T03:06:55;-0.80;99.90
38582;DHT22;24349;53.720;10.014;2023-02-26T03:09:21;-0.80;99.90
38582;DHT22;24349;53.720;10.014;2023-02-26T03:11:46;-0.80;99.90
38582;DHT22;24349;53.720;10.014;2023-02-26T03:14:12;-0.80;99.90
38582;DHT22;24349;53.720;10.014;2023-02-26T03:19:20;-0.80;99.90
38582;DHT22;24349;53.720;10.014;2023-02-26T03:22:00;-0.80;99.90
38582;DHT22;24349;53.720;10.014;2023-02-26T03:25:23;-0.80;99.90
38582;DHT22;24349;53.720;10.014;2023-02-26T03:30:14;-1.00;99.90
38582;DHT22;24349;53.720;10.014;2023-02-26T03:32:51;-1.10;99.90
38582;DHT22;24349;53.720;10.014;2023-02-26T03:44:31;-1.20;99.90
38582;DHT22;24349;53.720;10.014;2023-02-26T03:47:00;-1.20;99.90
38582;DHT22;24349;53.720;10.014;2023-02-26T03:49:31;-1.20;99.90
38582;DHT22;24349;53.720;10.014;2023-02-26T03:52:00;-1.30;99.90
38582;DHT22;24349;53.720;10.014;2023-02-26T03:54:33;-1.30;99.90
38582;DHT22;24349;53.720;10.014;2023-02-26T03:57:00;-1.30;99.90
38582;DHT22;24349;53.720;10.014;2023-02-26T03:59:26;-1.40;99.90
38582;DHT22;24349;53.720;10.014;2023-02-26T04:02:02;-1.40;99.90
38582;DHT22;24349;53.720;10.014;2023-02-26T04:04:39;-1.40;99.90
38582;DHT22;24349;53.720;10.014;2023-02-26T04:07:11;-1.40;99.90
38582;DHT22;24349;53.720;10.014;2023-02-26T04:09:41;-1.40;99.90
38582;DHT22;24349;53.720;10.014;2023-02-26T04:12:06;-1.40;99.90
38582;DHT22;24349;53.720;10.014;2023-02-26T04:14:32;-1.40;99.90
38582;DHT22;24349;53.720;10.014;2023-02-26T04:16:58;-1.40;99.90
38582;DHT22;24349;53.720;10.014;2023-02-26T04:19:23;-1.50;99.90
38582;DHT22;24349;53.720;10.014;2023-02-26T04:21:49;-1.50;99.90
38582;DHT22;24349;53.720;10.014;2023-02-26T04:24:14;-1.50;99.90
38582;DHT22;24349;53.720;10.014;2023-02-26T04:26:40;-1.50;99.90
38582;DHT22;24349;53.720;10.014;2023-02-26T04:29:06;-1.50;99.90
38582;DHT22;24349;53.720;10.014;2023-02-26T04:31:31;-1.50;99.90
38582;DHT22;24349;53.720;10.014;2023-02-26T04:33:57;-1.50;99.90
38582;DHT22;24349;53.720;10.014;2023-02-26T04:36:23;-1.50;99.90
38582;DHT22;24349;53.720;10.014;2023-02-26T04:38:48;-1.60;99.90
38582;DHT22;24349;53.720;10.014;2023-02-26T04:41:14;-1.60;99.90
38582;DHT22;24349;53.720;10.014;2023-02-26T04:43:39;-1.60;99.90
38582;DHT22;24349;53.720;10.014;2023-02-26T04:46:05;-1.70;99.90
38582;DHT22;24349;53.720;10.014;2023-02-26T04:48:30;-1.80;99.90
38582;DHT22;24349;53.720;10.014;2023-02-26T04:50:56;-1.90;99.90
38582;DHT22;24349;53.720;10.014;2023-02-26T04:53:22;-2.00;99.90
38582;DHT22;24349;53.720;10.014;2023-02-26T04:55:47;-2.00;99.90
38582;DHT22;24349;53.720;10.014;2023-02-26T04:58:14;-2.10;99.90
38582;DHT22;24349;53.720;10.014;2023-02-26T05:00:39;-2.20;99.90
38582;DHT22;24349;53.720;10.014;2023-02-26T05:03:05;-2.20;99.90
38582;DHT22;24349;53.720;10.014;2023-02-26T05:05:31;-2.20;99.90
38582;DHT22;24349;53.720;10.014;2023-02-26T05:07:57;-2.10;99.90
38582;DHT22;24349;53.720;10.014;2023-02-26T05:10:23;-2.00;1.00
38582;DHT22;24349;53.720;10.014;2023-02-26T05:12:49;-2.00;99.90
38582;DHT22;24349;53.720;10.014;2023-02-26T05:15:15;-1.90;99.90
38582;DHT22;24349;53.720;10.014;2023-02-26T05:17:40;-1.90;99.90
38582;DHT22;24349;53.720;10.014;2023-02-26T05:20:07;-1.80;99.90
38582;DHT22;24349;53.720;10.014;2023-02-26T05:22:39;-1.90;99.90
38582;DHT22;24349;53.720;10.014;2023-02-26T05:25:06;-1.90;99.90
38582;DHT22;24349;53.720;10.014;2023-02-26T05:27:32;-1.90;99.90
38582;DHT22;24349;53.720;10.014;2023-02-26T05:29:58;-1.90;99.90
38582;DHT22;24349;53.720;10.014;2023-02-26T05:32:24;-1.80;99.90
38582;DHT22;24349;53.720;10.014;2023-02-26T05:34:50;-1.90;99.90
38582;DHT22;24349;53.720;10.014;2023-02-26T05:37:15;-1.80;99.90
38582;DHT22;24349;53.720;10.014;2023-02-26T05:39:41;-1.80;99.90
38582;DHT22;24349;53.720;10.014;2023-02-26T05:42:07;-1.80;99.90
38582;DHT22;24349;53.720;10.014;2023-02-26T05:44:33;-1.80;99.90
38582;DHT22;24349;53.720;10.014;2023-02-26T05:47:00;-1.70;99.90
38582;DHT22;24349;53.720;10.014;2023-02-26T05:49:26;-1.80;99.90
38582;DHT22;24349;53.720;10.014;2023-02-26T05:51:52;-1.80;99.90
38582;DHT22;24349;53.720;10.014;2023-02-26T05:54:17;-1.80;1.00
38582;DHT22;24349;53.720;10.014;2023-02-26T05:56:43;-1.80;99.90
38582;DHT22;24349;53.720;10.014;2023-02-26T05:59:09;-1.80;1.00
38582;DHT22;24349;53.720;10.014;2023-02-26T06:01:35;-1.80;1.00
38582;DHT22;24349;53.720;10.014;2023-02-26T06:04:02;-1.90;1.00
38582;DHT22;24349;53.720;10.014;2023-02-26T06:06:28;-1.80;1.00
38582;DHT22;24349;53.720;10.014;2023-02-26T06:08:53;-1.80;1.00
38582;DHT22;24349;53.720;10.014;2023-02-26T06:11:19;-1.80;1.00
38582;DHT22;24349;53.720;10.014;2023-02-26T06:13:45;-1.80;1.00
38582;DHT22;24349;53.720;10.014;2023-02-26T06:16:10;-1.80;1.00
38582;DHT22;24349;53.720;10.014;2023-02-26T06:18:36;-1.70;1.00
38582;DHT22;24349;53.720;10.014;2023-02-26T06:21:02;-1.70;1.00
38582;DHT22;24349;53.720;10.014;2023-02-26T06:23:28;-1.70;1.00
38582;DHT22;24349;53.720;10.014;2023-02-26T06:25:53;-1.70;1.00
38582;DHT22;24349;53.720;10.014;2023-02-26T06:28:19;-1.70;1.00
38582;DHT22;24349;53.720;10.014;2023-02-26T06:30:45;-1.70;1.00
38582;DHT22;24349;53.720;10.014;2023-02-26T06:33:11;-1.70;1.00
38582;DHT22;24349;53.720;10.014;2023-02-26T06:35:37;-1.60;1.00
38582;DHT22;24349;53.720;10.014;2023-02-26T06:38:03;-1.60;1.00
38582;DHT22;24349;53.720;10.014;2023-02-26T06:40:29;-1.40;1.00
38582;DHT22;24349;53.720;10.014;2023-02-26T06:42:55;-0.90;1.00
38582;DHT22;24349;53.720;10.014;2023-02-26T06:45:21;-0.30;1.00
38582;DHT22;24349;53.720;10.014;2023-02-26T06:47:47;0.20;99.90
38582;DHT22;24349;53.720;10.014;2023-02-26T06:50:13;0.40;1.00
38582;DHT22;24349;53.720;10.014;2023-02-26T06:52:39;0.50;1.00
38582;DHT22;24349;53.720;10.014;2023-02-26T06:55:05;0.40;1.00
38582;DHT22;24349;53.720;10.014;2023-02-26T06:57:30;0.50;1.00
38582;DHT22;24349;53.720;10.014;2023-02-26T06:59:56;0.70;99.90
38582;DHT22;24349;53.720;10.014;2023-02-26T07:02:22;0.50;99.90
38582;DHT22;24349;53.720;10.014;2023-02-26T07:04:48;0.30;99.90
38582;DHT22;24349;53.720;10.014;2023-02-26T07:07:14;0.30;99.90
38582;DHT22;24349;53.720;10.014;2023-02-26T07:09:40;0.10;99.90
38582;DHT22;24349;53.720;10.014;2023-02-26T07:12:06;-0.10;99.90
38582;DHT22;24349;53.720;10.014;2023-02-26T07:14:33;-0.30;99.90
38582;DHT22;24349;53.720;10.014;2023-02-26T07:16:59;-0.10;99.90
38582;DHT22;24349;53.720;10.014;2023-02-26T07:19:25;0.80;99.90
38582;DHT22;24349;53.720;10.014;2023-02-26T07:21:50;1.50;99.90
38582;DHT22;24349;53.720;10.014;2023-02-26T07:24:16;2.10;99.90
38582;DHT22;24349;53.720;10.014;2023-02-26T07:26:42;2.60;99.90
38582;DHT22;24349;53.720;10.014;2023-02-26T07:29:08;2.60;99.90
38582;DHT22;24349;53.720;10.014;2023-02-26T07:31:33;3.30;99.90
38582;DHT22;24349;53.720;10.014;2023-02-26T07:33:59;4.00;99.90
38582;DHT22;24349;53.720;10.014;2023-02-26T07:36:25;4.40;99.90
38582;DHT22;24349;53.720;10.014;2023-02-26T07:38:50;5.00;99.90
38582;DHT22;24349;53.720;10.014;2023-02-26T07:41:16;5.50;99.90
38582;DHT22;24349;53.720;10.014;2023-02-26T07:43:41;6.00;99.90
38582;DHT22;24349;53.720;10.014;2023-02-26T07:46:07;5.90;99.90
38582;DHT22;24349;53.720;10.014;2023-02-26T07:48:33;6.20;99.90
38582;DHT22;24349;53.720;10.014;2023-02-26T07:50:59;6.50;99.90
38582;DHT22;24349;53.720;10.014;2023-02-26T07:53:25;7.00;99.90
38582;DHT22;24349;53.720;10.014;2023-02-26T07:55:50;7.40;99.90
38582;DHT22;24349;53.720;10.014;2023-02-26T07:58:17;7.50;99.90
38582;DHT22;24349;53.720;10.014;2023-02-26T08:00:43;7.20;99.90
38582;DHT22;24349;53.720;10.014;2023-02-26T08:03:09;7.50;99.90
38582;DHT22;24349;53.720;10.014;2023-02-26T08:05:34;7.60;99.90
38582;DHT22;24349;53.720;10.014;2023-02-26T08:08:00;7.70;99.90
38582;DHT22;24349;53.720;10.014;2023-02-26T08:10:28;8.00;99.90
38582;DHT22;24349;53.720;10.014;2023-02-26T08:12:54;8.60;99.90
38582;DHT22;24349;53.720;10.014;2023-02-26T08:15:19;8.80;99.90
38582;DHT22;24349;53.720;10.014;2023-02-26T08:17:45;8.70;99.90
38582;DHT22;24349;53.720;10.014;2023-02-26T08:20:11;8.60;99.90
38582;DHT22;24349;53.720;10.014;2023-02-26T08:22:38;8.50;99.90
38582;DHT22;24349;53.720;10.014;2023-02-26T08:25:04;9.10;99.90
38582;DHT22;24349;53.720;10.014;2023-02-26T08:27:30;9.90;99.90
38582;DHT22;24349;53.720;10.014;2023-02-26T08:29:55;10.00;99.90
38582;DHT22;24349;53.720;10.014;2023-02-26T08:32:21;9.70;99.90
38582;DHT22;24349;53.720;10.014;2023-02-26T08:34:47;9.80;99.90
38582;DHT22;24349;53.720;10.014;2023-02-26T08:37:13;9.80;99.90
38582;DHT22;24349;53.720;10.014;2023-02-26T08:39:39;9.60;99.90
38582;DHT22;24349;53.720;10.014;2023-02-26T08:42:08;9.50;99.90
38582;DHT22;24349;53.720;10.014;2023-02-26T08:44:34;9.90;99.90
38582;DHT22;24349;53.720;10.014;2023-02-26T08:47:00;9.80;99.90
38582;DHT22;24349;53.720;10.014;2023-02-26T08:49:25;10.20;99.30
38582;DHT22;24349;53.720;10.014;2023-02-26T08:51:51;10.10;99.90
38582;DHT22;24349;53.720;10.014;2023-02-26T08:54:16;10.30;99.90
38582;DHT22;24349;53.720;10.014;2023-02-26T08:56:42;11.10;99.90
38582;DHT22;24349;53.720;10.014;2023-02-26T08:59:08;11.10;99.90
38582;DHT22;24349;53.720;10.014;2023-02-26T09:01:36;11.30;99.90
38582;DHT22;24349;53.720;10.014;2023-02-26T09:04:01;11.70;99.90
38582;DHT22;24349;53.720;10.014;2023-02-26T09:06:27;12.00;99.90
38582;DHT22;24349;53.720;10.014;2023-02-26T09:08:52;11.50;99.90
38582;DHT22;24349;53.720;10.014;2023-02-26T09:11:18;10.80;99.90
38582;DHT22;24349;53.720;10.014;2023-02-26T09:13:43;10.70;99.90
38582;DHT22;24349;53.720;10.014;2023-02-26T09:16:09;10.60;99.90
38582;DHT22;24349;53.720;10.014;2023-02-26T09:18:35;10.40;99.90
38582;DHT22;24349;53.720;10.014;2023-02-26T09:21:01;9.20;99.90
38582;DHT22;24349;53.720;10.014;2023-02-26T09:23:27;9.00;99.90
38582;DHT22;24349;53.720;10.014;2023-02-26T09:25:54;9.60;99.90
38582;DHT22;24349;53.720;10.014;2023-02-26T09:28:21;10.10;99.90
38582;DHT22;24349;53.720;10.014;2023-02-26T09:30:51;10.70;99.90
38582;DHT22;24349;53.720;10.014;2023-02-26T09:33:17;11.70;99.90
38582;DHT22;24349;53.720;10.014;2023-02-26T09:35:42;11.80;99.90
38582;DHT22;24349;53.720;10.014;2023-02-26T09:38:08;12.20;99.90
38582;DHT22;24349;53.720;10.014;2023-02-26T09:46:29;13.70;99.90
38582;DHT22;24349;53.720;10.014;2023-02-26T09:49:27;14.40;99.90
38582;DHT22;24349;53.720;10.014;2023-02-26T09:52:48;14.80;99.90
38582;DHT22;24349;53.720;10.014;2023-02-26T09:55:25;14.20;99.90
38582;DHT22;24349;53.720;10.014;2023-02-26T09:57:56;13.30;99.90
38582;DHT22;24349;53.720;10.014;2023-02-26T10:00:37;12.50;99.90
38582;DHT22;24349;53.720;10.014;2023-02-26T10:03:19;11.20;99.90
38582;DHT22;24349;53.720;10.014;2023-02-26T10:14:25;9.30;99.90
38582;DHT22;24349;53.720;10.014;2023-02-26T10:16:58;9.00;99.90
38582;DHT22;24349;53.720;10.014;2023-02-26T10:19:32;8.20;99.90
38582;DHT22;24349;53.720;10.014;2023-02-26T10:24:53;8.00;99.90
38582;DHT22;24349;53.720;10.014;2023-02-26T10:27:33;8.00;99.90
38582;DHT22;24349;53.720;10.014;2023-02-26T10:30:06;8.00;99.90
38582;DHT22;24349;53.720;10.014;2023-02-26T10:32:40;8.00;99.90
38582;DHT22;24349;53.720;10.014;2023-02-26T10:35:09;7.80;99.90
38582;DHT22;24349;53.720;10.014;2023-02-26T10:37:59;7.30;99.90
38582;DHT22;24349;53.720;10.014;2023-02-26T10:40:42;6.80;99.90
38582;DHT22;24349;53.720;10.014;2023-02-26T10:51:23;8.90;99.90
38582;DHT22;24349;53.720;10.014;2023-02-26T10:53:56;9.10;99.90
38582;DHT22;24349;53.720;10.014;2023-02-26T10:56:31;8.30;99.90
38582;DHT22;24349;53.720;10.014;2023-02-26T10:58:57;7.80;99.90
38582;DHT22;24349;53.720;10.014;2023-02-26T11:01:25;7.70;99.90
38582;DHT22;24349;53.720;10.014;2023-02-26T11:04:02;7.60;99.90
38582;DHT22;24349;53.720;10.014;2023-02-26T11:06:38;7.50;99.90
38582;DHT22;24349;53.720;10.014;2023-02-26T11:09:23;7.50;99.90
38582;DHT22;24349;53.720;10.014;2023-02-26T11:12:15;7.30;99.90
38582;DHT22;24349;53.720;10.014;2023-02-26T11:14:43;6.90;99.90
38582;DHT22;24349;53.720;10.014;2023-02-26T11:17:22;6.60;99.90
38582;DHT22;24349;53.720;10.014;2023-02-26T11:19:56;6.40;99.90
38582;DHT22;24349;53.720;10.014;2023-02-26T11:22:25;6.50;99.90
38582;DHT22;24349;53.720;10.014;2023-02-26T11:24:52;6.40;1.00
38582;DHT22;24349;53.720;10.014;2023-02-26T11:27:37;6.40;1.00
38582;DHT22;24349;53.720;10.014;2023-02-26T11:30:09;6.40;1.00
38582;DHT22;24349;53.720;10.014;2023-02-26T11:32:39;6.50;1.00
38582;DHT22;24349;53.720;10.014;2023-02-26T11:35:08;6.30;1.00
38582;DHT22;24349;53.720;10.014;2023-02-26T11:37:41;6.20;1.00
38582;DHT22;24349;53.720;10.014;2023-02-26T11:40:17;6.20;1.00
38582;DHT22;24349;53.720;10.014;2023-02-26T11:42:49;6.10;1.00
38582;DHT22;24349;53.720;10.014;2023-02-26T11:45:19;7.00;14.50
38582;DHT22;24349;53.720;10.014;2023-02-26T11:47:46;8.20;1.00
38582;DHT22;24349;53.720;10.014;2023-02-26T11:50:19;8.10;1.00
38582;DHT22;24349;53.720;10.014;2023-02-26T11:53:03;7.60;1.00
38582;DHT22;24349;53.720;10.014;2023-02-26T11:55:34;7.10;1.00
38582;DHT22;24349;53.720;10.014;2023-02-26T11:58:00;6.90;1.00
38582;DHT22;24349;53.720;10.014;2023-02-26T12:00:39;6.90;1.00
38582;DHT22;24349;53.720;10.014;2023-02-26T12:03:09;8.00;1.00
38582;DHT22;24349;53.720;10.014;2023-02-26T12:05:39;9.30;1.00
38582;DHT22;24349;53.720;10.014;2023-02-26T12:08:32;10.60;1.00
38582;DHT22;24349;53.720;10.014;2023-02-26T12:19:18;10.40;99.90
38582;DHT22;24349;53.720;10.014;2023-02-26T12:30:24;12.00;99.90
38582;DHT22;24349;53.720;10.014;2023-02-26T12:33:09;11.00;99.90
38582;DHT22;24349;53.720;10.014;2023-02-26T12:38:27;8.70;99.90
38582;DHT22;24349;53.720;10.014;2023-02-26T12:43:44;7.70;99.90
38582;DHT22;24349;53.720;10.014;2023-02-26T12:46:42;7.60;99.90
38582;DHT22;24349;53.720;10.014;2023-02-26T12:49:37;8.00;99.90
38582;DHT22;24349;53.720;10.014;2023-02-26T12:52:33;8.60;99.90
38582;DHT22;24349;53.720;10.014;2023-02-26T13:01:02;8.50;99.90
38582;DHT22;24349;53.720;10.014;2023-02-26T13:12:03;7.20;99.90
38582;DHT22;24349;53.720;10.014;2023-02-26T13:17:06;7.20;1.00
38582;DHT22;24349;53.720;10.014;2023-02-26T13:19:48;7.00;1.00
38582;DHT22;24349;53.720;10.014;2023-02-26T13:22:31;6.90;1.00
38582;DHT22;24349;53.720;10.014;2023-02-26T13:25:04;7.00;1.00
38582;DHT22;24349;53.720;10.014;2023-02-26T13:27:36;7.20;1.00
38582;DHT22;24349;53.720;10.014;2023-02-26T13:30:13;7.00;1.00
38582;DHT22;24349;53.720;10.014;2023-02-26T13:32:43;7.20;1.00
38582;DHT22;24349;53.720;10.014;2023-02-26T13:35:26;7.30;1.00
38582;DHT22;24349;53.720;10.014;2023-02-26T13:37:55;7.20;1.00
38582;DHT22;24349;53.720;10.014;2023-02-26T13:40:42;7.10;1.00
38582;DHT22;24349;53.720;10.014;2023-02-26T13:48:59;7.00;1.00
38582;DHT22;24349;53.720;10.014;2023-02-26T13:51:44;7.50;1.00
38582;DHT22;24349;53.720;10.014;2023-02-26T13:59:31;7.10;99.90
38582;DHT22;24349;53.720;10.014;2023-02-26T14:02:30;7.00;99.90
38582;DHT22;24349;53.720;10.014;2023-02-26T14:04:59;6.90;99.90
38582;DHT22;24349;53.720;10.014;2023-02-26T14:07:48;6.70;99.90
38582;DHT22;24349;53.720;10.014;2023-02-26T14:10:46;7.10;99.90
38582;DHT22;24349;53.720;10.014;2023-02-26T14:13:17;7.30;99.90
38582;DHT22;24349;53.720;10.014;2023-02-26T14:18:35;7.60;99.90
38582;DHT22;24349;53.720;10.014;2023-02-26T14:21:31;7.50;99.90
38582;DHT22;24349;53.720;10.014;2023-02-26T14:32:47;6.60;99.90
38582;DHT22;24349;53.720;10.014;2023-02-26T14:35:15;6.50;99.90
38582;DHT22;24349;53.720;10.014;2023-02-26T14:37:47;6.50;99.90
38582;DHT22;24349;53.720;10.014;2023-02-26T14:40:17;6.40;99.90
38582;DHT22;24349;53.720;10.014;2023-02-26T14:42:59;6.50;99.90
38582;DHT22;24349;53.720;10.014;2023-02-26T14:45:30;6.60;99.90
38582;DHT22;24349;53.720;10.014;2023-02-26T14:47:58;6.60;99.90
38582;DHT22;24349;53.720;10.014;2023-02-26T14:50:35;6.70;99.90
38582;DHT22;24349;53.720;10.014;2023-02-26T15:09:17;6.00;99.90
38582;DHT22;24349;53.720;10.014;2023-02-26T15:14:36;6.20;1.00
38582;DHT22;24349;53.720;10.014;2023-02-26T15:25:41;5.70;99.90
38582;DHT22;24349;53.720;10.014;2023-02-26T15:28:28;5.50;99.90
38582;DHT22;24349;53.720;10.014;2023-02-26T15:30:55;5.50;99.90
38582;DHT22;24349;53.720;10.014;2023-02-26T15:33:23;5.70;1.00
38582;DHT22;24349;53.720;10.014;2023-02-26T15:35:50;6.10;1.00
38582;DHT22;24349;53.720;10.014;2023-02-26T15:38:17;6.30;99.90
38582;DHT22;24349;53.720;10.014;2023-02-26T15:40:44;6.30;1.00
38582;DHT22;24349;53.720;10.014;2023-02-26T15:43:14;6.10;99.90
38582;DHT22;24349;53.720;10.014;2023-02-26T15:45:43;5.90;99.90
38582;DHT22;24349;53.720;10.014;2023-02-26T15:48:25;5.60;99.90
38582;DHT22;24349;53.720;10.014;2023-02-26T15:50:55;5.50;99.90
38582;DHT22;24349;53.720;10.014;2023-02-26T15:55:57;5.40;1.00
38582;DHT22;24349;53.720;10.014;2023-02-26T15:58:40;5.30;1.00
38582;DHT22;24349;53.720;10.014;2023-02-26T16:01:14;5.30;1.00
38582;DHT22;24349;53.720;10.014;2023-02-26T16:03:41;5.10;1.00
38582;DHT22;24349;53.720;10.014;2023-02-26T16:06:12;5.10;1.00
38582;DHT22;24349;53.720;10.014;2023-02-26T16:08:38;5.20;1.00
38582;DHT22;24349;53.720;10.014;2023-02-26T16:11:04;5.20;1.00
38582;DHT22;24349;53.720;10.014;2023-02-26T16:13:32;5.20;1.00
38582;DHT22;24349;53.720;10.014;2023-02-26T16:16:01;5.10;1.00
38582;DHT22;24349;53.720;10.014;2023-02-26T16:18:30;4.90;1.00
38582;DHT22;24349;53.720;10.014;2023-02-26T16:20:58;4.90;1.00
38582;DHT22;24349;53.720;10.014;2023-02-26T16:23:38;4.90;1.00
38582;DHT22;24349;53.720;10.014;2023-02-26T16:26:08;4.90;1.00
38582;DHT22;24349;53.720;10.014;2023-02-26T16:28:40;4.90;1.00
38582;DHT22;24349;53.720;10.014;2023-02-26T16:31:16;4.90;1.00
38582;DHT22;24349;53.720;10.014;2023-02-26T16:33:52;4.80;1.00
38582;DHT22;24349;53.720;10.014;2023-02-26T16:36:19;4.80;1.00
38582;DHT22;24349;53.720;10.014;2023-02-26T16:38:55;4.60;1.00
38582;DHT22;24349;53.720;10.014;2023-02-26T16:41:26;4.40;1.00
38582;DHT22;24349;53.720;10.014;2023-02-26T16:43:55;4.20;1.00
38582;DHT22;24349;53.720;10.014;2023-02-26T16:49:05;4.00;2.10
38582;DHT22;24349;53.720;10.014;2023-02-26T16:51:37;3.90;30.00
38582;DHT22;24349;53.720;10.014;2023-02-26T16:54:20;3.90;52.20
38582;DHT22;24349;53.720;10.014;2023-02-26T16:56:51;3.80;84.20
38582;DHT22;24349;53.720;10.014;2023-02-26T16:59:27;3.80;89.70
38582;DHT22;24349;53.720;10.014;2023-02-26T17:02:18;3.70;88.70
38582;DHT22;24349;53.720;10.014;2023-02-26T17:04:45;3.70;62.60
38582;DHT22;24349;53.720;10.014;2023-02-26T17:07:20;3.70;70.20
38582;DHT22;24349;53.720;10.014;2023-02-26T17:09:50;3.70;91.40
38582;DHT22;24349;53.720;10.014;2023-02-26T17:12:19;3.60;93.80
38582;DHT22;24349;53.720;10.014;2023-02-26T17:14:51;3.40;99.90
38582;DHT22;24349;53.720;10.014;2023-02-26T17:17:17;3.30;99.90
38582;DHT22;24349;53.720;10.014;2023-02-26T17:19:43;3.20;99.90
38582;DHT22;24349;53.720;10.014;2023-02-26T17:22:17;3.00;99.90
38582;DHT22;24349;53.720;10.014;2023-02-26T17:24:44;3.10;99.90
38582;DHT22;24349;53.720;10.014;2023-02-26T17:27:29;3.00;99.90
38582;DHT22;24349;53.720;10.014;2023-02-26T17:29:57;2.90;99.90
38582;DHT22;24349;53.720;10.014;2023-02-26T17:32:25;2.80;1.00
38582;DHT22;24349;53.720;10.014;2023-02-26T17:34:51;2.80;1.00
38582;DHT22;24349;53.720;10.014;2023-02-26T17:37:18;2.80;4.00
38582;DHT22;24349;53.720;10.014;2023-02-26T17:39:44;2.80;49.50
38582;DHT22;24349;53.720;10.014;2023-02-26T17:42:15;2.80;37.90
38582;DHT22;24349;53.720;10.014;2023-02-26T17:44:44;2.90;87.70
38582;DHT22;24349;53.720;10.014;2023-02-26T17:47:19;2.80;39.20
38582;DHT22;24349;53.720;10.014;2023-02-26T17:49:46;2.80;57.10
38582;DHT22;24349;53.720;10.014;2023-02-26T17:52:12;2.80;98.50
38582;DHT22;24349;53.720;10.014;2023-02-26T17:54:38;2.80;99.90
38582;DHT22;24349;53.720;10.014;2023-02-26T17:57:04;2.70;99.90
38582;DHT22;24349;53.720;10.014;2023-02-26T17:59:30;2.70;99.90
38582;DHT22;24349;53.720;10.014;2023-02-26T18:01:56;2.70;99.90
38582;DHT22;24349;53.720;10.014;2023-02-26T18:04:21;2.70;99.90
38582;DHT22;24349;53.720;10.014;2023-02-26T18:06:47;2.70;99.90
38582;DHT22;24349;53.720;10.014;2023-02-26T18:09:14;2.60;99.90
38582;DHT22;24349;53.720;10.014;2023-02-26T18:11:39;2.60;99.90
38582;DHT22;24349;53.720;10.014;2023-02-26T18:14:06;2.50;99.90
38582;DHT22;24349;53.720;10.014;2023-02-26T18:16:35;2.50;1.00
38582;DHT22;24349;53.720;10.014;2023-02-26T18:19:02;2.40;1.00
38582;DHT22;24349;53.720;10.014;2023-02-26T18:21:28;2.30;1.20
38582;DHT22;24349;53.720;10.014;2023-02-26T18:23:55;2.20;99.90
38582;DHT22;24349;53.720;10.014;2023-02-26T18:26:23;2.20;99.90
38582;DHT22;24349;53.720;10.014;2023-02-26T18:28:50;2.20;1.00
38582;DHT22;24349;53.720;10.014;2023-02-26T18:31:16;2.10;1.00
38582;DHT22;24349;53.720;10.014;2023-02-26T18:33:42;2.10;39.30
38582;DHT22;24349;53.720;10.014;2023-02-26T18:36:30;2.10;47.10
38582;DHT22;24349;53.720;10.014;2023-02-26T18:39:00;2.10;99.90
38582;DHT22;24349;53.720;10.014;2023-02-26T18:41:27;2.00;99.90
38582;DHT22;24349;53.720;10.014;2023-02-26T18:43:53;2.00;99.90